sensor_id;sensor_type;location;lat;lon;timestamp;temperature;humidity
44215;DHT22;29884;47.450;19.124;2022-11-15T00:01:38;5.10;99.90
44215;DHT22;29884;47.450;19.124;2022-11-15T00:04:04;5.10;99.90
44215;DHT22;29884;47.450;19.124;2022-11-15T00:06:30;5.10;99.90
44215;DHT22;29884;47.450;19.124;2022-11-15T00:08:58;5.10;99.90
44215;DHT22;29884;47.450;19.124;2022-11-15T00:11:24;5.10;99.90
44215;DHT22;29884;47.450;19.124;2022-11-15T00:13:50;5.20;99.90
44215;DHT22;29884;47.450;19.124;2022-11-15T00:16:16;5.20;99.90
44215;DHT22;29884;47.450;19.124;2022-11-15T00:18:42;5.30;99.90
44215;DHT22;29884;47.450;19.124;2022-11-15T00:21:11;5.40;99.90
44215;DHT22;29884;47.450;19.124;2022-11-15T00:23:37;5.40;99.90
44215;DHT22;29884;47.450;19.124;2022-11-15T00:26:03;5.30;99.90
44215;DHT22;29884;47.450;19.124;2022-11-15T00:28:29;5.30;99.90
44215;DHT22;29884;47.450;19.124;2022-11-15T00:31:03;5.30;99.90
44215;DHT22;29884;47.450;19.124;2022-11-15T00:33:28;5.30;99.90
44215;DHT22;29884;47.450;19.124;2022-11-15T00:36:03;5.40;99.90
44215;DHT22;29884;47.450;19.124;2022-11-15T00:38:37;5.50;99.90
44215;DHT22;29884;47.450;19.124;2022-11-15T00:41:04;5.50;99.90
44215;DHT22;29884;47.450;19.124;2022-11-15T00:43:30;5.50;99.90
44215;DHT22;29884;47.450;19.124;2022-11-15T00:45:56;5.50;99.90
44215;DHT22;29884;47.450;19.124;2022-11-15T00:48:22;5.50;99.90
44215;DHT22;29884;47.450;19.124;2022-11-15T00:50:48;5.40;99.90
44215;DHT22;29884;47.450;19.124;2022-11-15T00:53:14;5.50;99.90
44215;DHT22;29884;47.450;19.124;2022-11-15T00:55:40;5.50;99.90
44215;DHT22;29884;47.450;19.124;2022-11-15T00:58:06;5.50;99.90
44215;DHT22;29884;47.450;19.124;2022-11-15T01:00:31;5.50;99.90
44215;DHT22;29884;47.450;19.124;2022-11-15T01:02:57;5.60;99.90
44215;DHT22;29884;47.450;19.124;2022-11-15T01:05:23;5.50;99.90
44215;DHT22;29884;47.450;19.124;2022-11-15T01:07:56;5.60;99.90
44215;DHT22;29884;47.450;19.124;2022-11-15T01:10:23;5.60;99.90
44215;DHT22;29884;47.450;19.124;2022-11-15T01:12:49;5.60;99.90
44215;DHT22;29884;47.450;19.124;2022-11-15T01:15:15;5.70;99.90
44215;DHT22;29884;47.450;19.124;2022-11-15T01:17:40;5.60;99.90
44215;DHT22;29884;47.450;19.124;2022-11-15T01:20:07;5.60;99.90
44215;DHT22;29884;47.450;19.124;2022-11-15T01:22:32;5.70;99.90
44215;DHT22;29884;47.450;19.124;2022-11-15T01:24:58;5.70;99.90
44215;DHT22;29884;47.450;19.124;2022-11-15T01:27:24;5.60;99.90
44215;DHT22;29884;47.450;19.124;2022-11-15T01:29:50;5.70;99.90
44215;DHT22;29884;47.450;19.124;2022-11-15T01:32:16;5.60;99.90
44215;DHT22;29884;47.450;19.124;2022-11-15T01:34:42;5.60;99.90
44215;DHT22;29884;47.450;19.124;2022-11-15T01:37:07;5.70;99.90
44215;DHT22;29884;47.450;19.124;2022-11-15T01:39:33;5.70;99.90
44215;DHT22;29884;47.450;19.124;2022-11-15T01:41:59;5.70;99.90
44215;DHT22;29884;47.450;19.124;2022-11-15T01:47:01;5.70;99.90
44215;DHT22;29884;47.450;19.124;2022-11-15T01:49:30;5.70;99.90
44215;DHT22;29884;47.450;19.124;2022-11-15T01:51:58;5.70;99.90
44215;DHT22;29884;47.450;19.124;2022-11-15T01:54:25;5.70;99.90
44215;DHT22;29884;47.450;19.124;2022-11-15T01:56:55;5.80;99.90
44215;DHT22;29884;47.450;19.124;2022-11-15T01:59:23;5.80;99.90
44215;DHT22;29884;47.450;19.124;2022-11-15T02:01:49;5.80;99.90
44215;DHT22;29884;47.450;19.124;2022-11-15T02:04:26;5.90;99.90
44215;DHT22;29884;47.450;19.124;2022-11-15T02:06:53;5.90;99.90
44215;DHT22;29884;47.450;19.124;2022-11-15T02:09:19;5.90;99.90
44215;DHT22;29884;47.450;19.124;2022-11-15T02:11:46;6.00;99.90
44215;DHT22;29884;47.450;19.124;2022-11-15T02:14:14;6.00;99.90
44215;DHT22;29884;47.450;19.124;2022-11-15T02:33:32;5.90;99.90
44215;DHT22;29884;47.450;19.124;2022-11-15T02:36:09;5.90;99.90
44215;DHT22;29884;47.450;19.124;2022-11-15T02:41:25;5.90;99.90
44215;DHT22;29884;47.450;19.124;2022-11-15T02:44:00;5.80;99.90
44215;DHT22;29884;47.450;19.124;2022-11-15T02:46:41;5.90;99.90
44215;DHT22;29884;47.450;19.124;2022-11-15T02:49:37;5.90;99.90
44215;DHT22;29884;47.450;19.124;2022-11-15T02:52:03;5.90;99.90
44215;DHT22;29884;47.450;19.124;2022-11-15T02:54:33;5.90;99.90
44215;DHT22;29884;47.450;19.124;2022-11-15T02:57:07;5.90;99.90
44215;DHT22;29884;47.450;19.124;2022-11-15T03:02:41;6.00;99.90
44215;DHT22;29884;47.450;19.124;2022-11-15T03:10:17;5.90;99.90
44215;DHT22;29884;47.450;19.124;2022-11-15T03:13:04;5.90;99.90
44215;DHT22;29884;47.450;19.124;2022-11-15T03:15:43;6.00;99.90
44215;DHT22;29884;47.450;19.124;2022-11-15T03:20:43;6.00;99.90
44215;DHT22;29884;47.450;19.124;2022-11-15T03:23:10;5.90;99.90
44215;DHT22;29884;47.450;19.124;2022-11-15T03:25:40;5.90;99.90
44215;DHT22;29884;47.450;19.124;2022-11-15T03:28:11;5.90;99.90
44215;DHT22;29884;47.450;19.124;2022-11-15T03:30:39;5.90;99.90
44215;DHT22;29884;47.450;19.124;2022-11-15T03:33:05;5.90;99.90
44215;DHT22;29884;47.450;19.124;2022-11-15T03:35:39;5.90;99.90
44215;DHT22;29884;47.450;19.124;2022-11-15T03:38:26;5.90;99.90
44215;DHT22;29884;47.450;19.124;2022-11-15T03:41:06;5.90;99.90
44215;DHT22;29884;47.450;19.124;2022-11-15T03:43:43;6.00;99.90
44215;DHT22;29884;47.450;19.124;2022-11-15T03:49:09;6.10;99.90
44215;DHT22;29884;47.450;19.124;2022-11-15T03:51:37;6.10;99.90
44215;DHT22;29884;47.450;19.124;2022-11-15T03:54:04;6.10;99.90
44215;DHT22;29884;47.450;19.124;2022-11-15T03:56:30;6.10;99.90
44215;DHT22;29884;47.450;19.124;2022-11-15T03:58:56;6.10;99.90
44215;DHT22;29884;47.450;19.124;2022-11-15T04:01:22;6.00;99.90
44215;DHT22;29884;47.450;19.124;2022-11-15T04:03:47;6.00;99.90
44215;DHT22;29884;47.450;19.124;2022-11-15T04:06:13;5.90;99.90
44215;DHT22;29884;47.450;19.124;2022-11-15T04:08:39;6.00;99.90
44215;DHT22;29884;47.450;19.124;2022-11-15T04:11:04;6.00;99.90
44215;DHT22;29884;47.450;19.124;2022-11-15T04:13:30;6.00;99.90
44215;DHT22;29884;47.450;19.124;2022-11-15T04:15:56;6.00;99.90
44215;DHT22;29884;47.450;19.124;2022-11-15T04:18:21;6.00;99.90
44215;DHT22;29884;47.450;19.124;2022-11-15T04:20:47;6.10;99.90
44215;DHT22;29884;47.450;19.124;2022-11-15T04:23:31;6.10;99.90
44215;DHT22;29884;47.450;19.124;2022-11-15T04:26:19;6.10;99.90
44215;DHT22;29884;47.450;19.124;2022-11-15T04:28:45;6.10;99.90
44215;DHT22;29884;47.450;19.124;2022-11-15T04:31:30;6.20;99.90
44215;DHT22;29884;47.450;19.124;2022-11-15T04:33:55;6.10;99.90
44215;DHT22;29884;47.450;19.124;2022-11-15T04:36:21;6.10;99.90
44215;DHT22;29884;47.450;19.124;2022-11-15T04:39:06;6.10;99.90
44215;DHT22;29884;47.450;19.124;2022-11-15T04:41:32;6.10;99.90
44215;DHT22;29884;47.450;19.124;2022-11-15T04:43:58;6.00;99.90
44215;DHT22;29884;47.450;19.124;2022-11-15T04:46:24;6.00;99.90
44215;DHT22;29884;47.450;19.124;2022-11-15T04:48:50;5.90;99.90
44215;DHT22;29884;47.450;19.124;2022-11-15T04:51:16;5.90;99.90
44215;DHT22;29884;47.450;19.124;2022-11-15T04:53:42;5.90;99.90
44215;DHT22;29884;47.450;19.124;2022-11-15T04:56:08;5.90;99.90
44215;DHT22;29884;47.450;19.124;2022-11-15T04:58:33;5.90;99.90
44215;DHT22;29884;47.450;19.124;2022-11-15T05:01:10;5.90;99.90
44215;DHT22;29884;47.450;19.124;2022-11-15T05:03:36;5.90;99.90
44215;DHT22;29884;47.450;19.124;2022-11-15T05:06:20;6.00;99.90
44215;DHT22;29884;47.450;19.124;2022-11-15T05:08:46;6.00;99.90
44215;DHT22;29884;47.450;19.124;2022-11-15T05:11:12;5.90;99.90
44215;DHT22;29884;47.450;19.124;2022-11-15T05:13:37;5.90;99.90
44215;DHT22;29884;47.450;19.124;2022-11-15T05:16:03;5.90;99.90
44215;DHT22;29884;47.450;19.124;2022-11-15T05:18:29;5.90;99.90
44215;DHT22;29884;47.450;19.124;2022-11-15T05:20:55;6.00;99.90
44215;DHT22;29884;47.450;19.124;2022-11-15T05:23:21;6.00;99.90
44215;DHT22;29884;47.450;19.124;2022-11-15T05:25:46;6.00;99.90
44215;DHT22;29884;47.450;19.124;2022-11-15T05:28:12;6.00;99.90
44215;DHT22;29884;47.450;19.124;2022-11-15T05:30:38;6.00;99.90
44215;DHT22;29884;47.450;19.124;2022-11-15T05:33:04;6.00;99.90
44215;DHT22;29884;47.450;19.124;2022-11-15T05:35:38;6.00;99.90
44215;DHT22;29884;47.450;19.124;2022-11-15T05:38:05;6.00;99.90
44215;DHT22;29884;47.450;19.124;2022-11-15T05:40:31;6.10;99.90
44215;DHT22;29884;47.450;19.124;2022-11-15T05:42:57;6.10;99.90
44215;DHT22;29884;47.450;19.124;2022-11-15T05:45:24;6.10;99.90
44215;DHT22;29884;47.450;19.124;2022-11-15T05:47:50;6.10;99.90
44215;DHT22;29884;47.450;19.124;2022-11-15T05:50:17;6.10;99.90
44215;DHT22;29884;47.450;19.124;2022-11-15T05:52:45;6.10;99.90
44215;DHT22;29884;47.450;19.124;2022-11-15T05:55:11;6.10;99.90
44215;DHT22;29884;47.450;19.124;2022-11-15T05:57:38;6.10;99.90
44215;DHT22;29884;47.450;19.124;2022-11-15T06:00:04;6.10;99.90
44215;DHT22;29884;47.450;19.124;2022-11-15T06:02:30;6.10;99.90
44215;DHT22;29884;47.450;19.124;2022-11-15T06:04:56;6.10;99.90
44215;DHT22;29884;47.450;19.124;2022-11-15T06:07:21;6.20;99.90
44215;DHT22;29884;47.450;19.124;2022-11-15T06:09:47;6.20;99.90
44215;DHT22;29884;47.450;19.124;2022-11-15T06:12:13;6.20;99.90
44215;DHT22;29884;47.450;19.124;2022-11-15T06:14:39;6.20;99.90
44215;DHT22;29884;47.450;19.124;2022-11-15T06:17:04;6.20;99.90
44215;DHT22;29884;47.450;19.124;2022-11-15T06:19:30;6.20;99.90
44215;DHT22;29884;47.450;19.124;2022-11-15T06:21:59;6.20;99.90
44215;DHT22;29884;47.450;19.124;2022-11-15T06:24:25;6.20;99.90
44215;DHT22;29884;47.450;19.124;2022-11-15T06:26:50;6.30;99.90
44215;DHT22;29884;47.450;19.124;2022-11-15T06:29:16;6.50;99.90
44215;DHT22;29884;47.450;19.124;2022-11-15T06:31:42;6.50;99.90
44215;DHT22;29884;47.450;19.124;2022-11-15T06:34:07;6.40;99.90
44215;DHT22;29884;47.450;19.124;2022-11-15T06:36:36;6.40;99.90
44215;DHT22;29884;47.450;19.124;2022-11-15T06:39:03;6.50;99.90
44215;DHT22;29884;47.450;19.124;2022-11-15T06:41:29;6.40;99.90
44215;DHT22;29884;47.450;19.124;2022-11-15T06:43:56;6.40;99.90
44215;DHT22;29884;47.450;19.124;2022-11-15T06:46:22;6.40;99.90
44215;DHT22;29884;47.450;19.124;2022-11-15T06:48:49;6.40;99.90
44215;DHT22;29884;47.450;19.124;2022-11-15T06:51:15;6.40;99.90
44215;DHT22;29884;47.450;19.124;2022-11-15T06:53:41;6.40;99.90
44215;DHT22;29884;47.450;19.124;2022-11-15T06:56:07;6.50;99.90
44215;DHT22;29884;47.450;19.124;2022-11-15T06:58:33;6.50;99.90
44215;DHT22;29884;47.450;19.124;2022-11-15T07:01:01;6.60;99.90
44215;DHT22;29884;47.450;19.124;2022-11-15T07:03:28;6.50;99.90
44215;DHT22;29884;47.450;19.124;2022-11-15T07:05:54;6.60;99.90
44215;DHT22;29884;47.450;19.124;2022-11-15T07:08:21;6.60;99.90
44215;DHT22;29884;47.450;19.124;2022-11-15T07:10:47;6.60;99.90
44215;DHT22;29884;47.450;19.124;2022-11-15T07:13:13;6.70;99.90
44215;DHT22;29884;47.450;19.124;2022-11-15T07:15:38;6.70;99.90
44215;DHT22;29884;47.450;19.124;2022-11-15T07:18:04;6.70;99.90
44215;DHT22;29884;47.450;19.124;2022-11-15T07:20:29;6.70;99.90
44215;DHT22;29884;47.450;19.124;2022-11-15T07:23:04;6.90;99.90
44215;DHT22;29884;47.450;19.124;2022-11-15T07:25:31;6.90;99.90
44215;DHT22;29884;47.450;19.124;2022-11-15T07:27:58;6.90;99.90
44215;DHT22;29884;47.450;19.124;2022-11-15T07:30:24;7.00;99.90
44215;DHT22;29884;47.450;19.124;2022-11-15T07:32:57;7.00;99.90
44215;DHT22;29884;47.450;19.124;2022-11-15T07:35:24;7.00;99.90
44215;DHT22;29884;47.450;19.124;2022-11-15T07:38:01;7.20;99.90
44215;DHT22;29884;47.450;19.124;2022-11-15T07:40:29;7.20;99.90
44215;DHT22;29884;47.450;19.124;2022-11-15T07:43:03;7.20;99.90
44215;DHT22;29884;47.450;19.124;2022-11-15T07:45:29;7.30;99.90
44215;DHT22;29884;47.450;19.124;2022-11-15T07:47:55;7.20;99.90
44215;DHT22;29884;47.450;19.124;2022-11-15T07:50:22;7.30;99.90
44215;DHT22;29884;47.450;19.124;2022-11-15T07:52:54;7.40;99.90
44215;DHT22;29884;47.450;19.124;2022-11-15T07:55:20;7.40;99.90
44215;DHT22;29884;47.450;19.124;2022-11-15T07:57:46;7.40;99.90
44215;DHT22;29884;47.450;19.124;2022-11-15T08:00:12;7.50;99.90
44215;DHT22;29884;47.450;19.124;2022-11-15T08:02:38;7.50;99.90
44215;DHT22;29884;47.450;19.124;2022-11-15T08:05:04;7.40;99.90
44215;DHT22;29884;47.450;19.124;2022-11-15T08:07:30;7.40;99.90
44215;DHT22;29884;47.450;19.124;2022-11-15T08:09:57;7.50;99.90
44215;DHT22;29884;47.450;19.124;2022-11-15T08:12:23;7.40;99.90
44215;DHT22;29884;47.450;19.124;2022-11-15T08:14:49;7.50;99.90
44215;DHT22;29884;47.450;19.124;2022-11-15T08:17:14;7.50;99.90
44215;DHT22;29884;47.450;19.124;2022-11-15T08:19:40;7.40;99.90
44215;DHT22;29884;47.450;19.124;2022-11-15T08:22:07;7.50;99.90
44215;DHT22;29884;47.450;19.124;2022-11-15T08:24:33;7.40;99.90
44215;DHT22;29884;47.450;19.124;2022-11-15T08:26:59;7.40;99.90
44215;DHT22;29884;47.450;19.124;2022-11-15T08:29:25;7.40;99.90
44215;DHT22;29884;47.450;19.124;2022-11-15T08:31:54;7.40;99.90
44215;DHT22;29884;47.450;19.124;2022-11-15T08:34:19;7.50;99.90
44215;DHT22;29884;47.450;19.124;2022-11-15T08:36:45;7.50;99.90
44215;DHT22;29884;47.450;19.124;2022-11-15T08:39:11;7.50;99.90
44215;DHT22;29884;47.450;19.124;2022-11-15T08:41:38;7.40;99.90
44215;DHT22;29884;47.450;19.124;2022-11-15T08:44:04;7.40;99.90
44215;DHT22;29884;47.450;19.124;2022-11-15T08:46:29;7.50;99.90
44215;DHT22;29884;47.450;19.124;2022-11-15T08:48:55;7.60;99.90
44215;DHT22;29884;47.450;19.124;2022-11-15T08:51:21;7.60;99.90
44215;DHT22;29884;47.450;19.124;2022-11-15T08:53:46;7.60;99.90
44215;DHT22;29884;47.450;19.124;2022-11-15T08:56:14;7.60;99.90
44215;DHT22;29884;47.450;19.124;2022-11-15T08:58:40;7.60;99.90
44215;DHT22;29884;47.450;19.124;2022-11-15T09:01:13;7.70;99.90
44215;DHT22;29884;47.450;19.124;2022-11-15T09:03:40;7.80;99.90
44215;DHT22;29884;47.450;19.124;2022-11-15T09:06:06;7.80;99.90
44215;DHT22;29884;47.450;19.124;2022-11-15T09:08:32;7.90;99.90
44215;DHT22;29884;47.450;19.124;2022-11-15T09:10:57;7.90;99.90
44215;DHT22;29884;47.450;19.124;2022-11-15T09:13:23;7.90;99.90
44215;DHT22;29884;47.450;19.124;2022-11-15T09:15:49;8.10;99.90
44215;DHT22;29884;47.450;19.124;2022-11-15T09:18:14;8.20;99.90
44215;DHT22;29884;47.450;19.124;2022-11-15T09:20:40;8.30;99.90
44215;DHT22;29884;47.450;19.124;2022-11-15T09:23:06;8.30;99.90
44215;DHT22;29884;47.450;19.124;2022-11-15T09:25:32;8.10;99.90
44215;DHT22;29884;47.450;19.124;2022-11-15T09:27:58;8.20;99.90
44215;DHT22;29884;47.450;19.124;2022-11-15T09:30:25;8.30;99.90
44215;DHT22;29884;47.450;19.124;2022-11-15T09:32:51;8.20;99.90
44215;DHT22;29884;47.450;19.124;2022-11-15T09:35:17;8.10;99.90
44215;DHT22;29884;47.450;19.124;2022-11-15T09:37:42;8.10;99.90
44215;DHT22;29884;47.450;19.124;2022-11-15T09:40:11;8.00;99.90
44215;DHT22;29884;47.450;19.124;2022-11-15T09:45:41;8.20;99.90
44215;DHT22;29884;47.450;19.124;2022-11-15T09:48:25;8.20;99.90
44215;DHT22;29884;47.450;19.124;2022-11-15T09:50:53;8.10;99.90
44215;DHT22;29884;47.450;19.124;2022-11-15T09:53:34;8.10;99.90
44215;DHT22;29884;47.450;19.124;2022-11-15T09:56:03;8.10;99.90
44215;DHT22;29884;47.450;19.124;2022-11-15T10:03:59;8.30;99.90
44215;DHT22;29884;47.450;19.124;2022-11-15T10:06:26;8.20;99.90
44215;DHT22;29884;47.450;19.124;2022-11-15T10:09:06;8.30;99.90
44215;DHT22;29884;47.450;19.124;2022-11-15T10:11:36;8.20;99.90
44215;DHT22;29884;47.450;19.124;2022-11-15T10:14:13;8.20;99.90
44215;DHT22;29884;47.450;19.124;2022-11-15T10:19:53;8.20;99.90
44215;DHT22;29884;47.450;19.124;2022-11-15T10:25:23;8.00;99.90
44215;DHT22;29884;47.450;19.124;2022-11-15T10:28:29;8.10;99.90
44215;DHT22;29884;47.450;19.124;2022-11-15T10:30:51;8.10;99.90
44215;DHT22;29884;47.450;19.124;2022-11-15T10:35:46;8.00;99.90
44215;DHT22;29884;47.450;19.124;2022-11-15T10:38:12;7.90;99.90
44215;DHT22;29884;47.450;19.124;2022-11-15T10:40:40;7.90;99.90
44215;DHT22;29884;47.450;19.124;2022-11-15T10:45:34;8.00;99.90
44215;DHT22;29884;47.450;19.124;2022-11-15T10:50:41;8.00;99.90
44215;DHT22;29884;47.450;19.124;2022-11-15T10:53:30;8.00;99.90
44215;DHT22;29884;47.450;19.124;2022-11-15T10:56:03;7.90;99.90
44215;DHT22;29884;47.450;19.124;2022-11-15T10:58:40;7.90;99.90
44215;DHT22;29884;47.450;19.124;2022-11-15T11:03:42;8.00;99.90
44215;DHT22;29884;47.450;19.124;2022-11-15T11:08:37;8.00;99.90
44215;DHT22;29884;47.450;19.124;2022-11-15T11:11:05;8.10;99.90
44215;DHT22;29884;47.450;19.124;2022-11-15T11:13:40;8.10;99.90
44215;DHT22;29884;47.450;19.124;2022-11-15T11:16:18;8.20;99.90
44215;DHT22;29884;47.450;19.124;2022-11-15T11:21:44;8.40;99.90
44215;DHT22;29884;47.450;19.124;2022-11-15T11:24:31;8.30;99.90
44215;DHT22;29884;47.450;19.124;2022-11-15T11:27:31;8.30;99.90
44215;DHT22;29884;47.450;19.124;2022-11-15T11:30:20;8.30;99.90
44215;DHT22;29884;47.450;19.124;2022-11-15T11:33:08;8.40;99.90
44215;DHT22;29884;47.450;19.124;2022-11-15T11:47:12;8.30;99.90
44215;DHT22;29884;47.450;19.124;2022-11-15T11:49:46;8.40;99.90
44215;DHT22;29884;47.450;19.124;2022-11-15T11:52:24;8.40;99.90
44215;DHT22;29884;47.450;19.124;2022-11-15T12:01:10;8.30;99.90
44215;DHT22;29884;47.450;19.124;2022-11-15T12:09:15;8.30;99.90
44215;DHT22;29884;47.450;19.124;2022-11-15T12:14:31;8.20;99.90
44215;DHT22;29884;47.450;19.124;2022-11-15T12:16:58;8.20;99.90
44215;DHT22;29884;47.450;19.124;2022-11-15T12:19:25;8.20;99.90
44215;DHT22;29884;47.450;19.124;2022-11-15T12:27:00;8.10;99.90
44215;DHT22;29884;47.450;19.124;2022-11-15T12:29:41;8.00;99.90
44215;DHT22;29884;47.450;19.124;2022-11-15T12:34:49;8.10;99.90
44215;DHT22;29884;47.450;19.124;2022-11-15T12:37:49;8.10;99.90
44215;DHT22;29884;47.450;19.124;2022-11-15T12:45:38;8.20;99.90
44215;DHT22;29884;47.450;19.124;2022-11-15T12:48:44;8.20;99.90
44215;DHT22;29884;47.450;19.124;2022-11-15T12:51:03;8.20;99.90
44215;DHT22;29884;47.450;19.124;2022-11-15T12:53:31;8.20;99.90
44215;DHT22;29884;47.450;19.124;2022-11-15T13:06:48;8.10;99.90
44215;DHT22;29884;47.450;19.124;2022-11-15T13:09:50;8.20;99.90
44215;DHT22;29884;47.450;19.124;2022-11-15T13:15:01;8.30;99.90
44215;DHT22;29884;47.450;19.124;2022-11-15T13:17:35;8.30;99.90
44215;DHT22;29884;47.450;19.124;2022-11-15T13:35:49;8.30;99.90
44215;DHT22;29884;47.450;19.124;2022-11-15T13:38:30;8.30;99.90
44215;DHT22;29884;47.450;19.124;2022-11-15T13:40:57;8.20;99.90
44215;DHT22;29884;47.450;19.124;2022-11-15T13:43:32;8.10;99.90
44215;DHT22;29884;47.450;19.124;2022-11-15T13:46:12;8.10;99.90
44215;DHT22;29884;47.450;19.124;2022-11-15T13:48:39;8.20;99.90
44215;DHT22;29884;47.450;19.124;2022-11-15T13:56:42;8.10;99.90
44215;DHT22;29884;47.450;19.124;2022-11-15T13:59:35;8.00;99.90
44215;DHT22;29884;47.450;19.124;2022-11-15T14:02:13;8.00;99.90
44215;DHT22;29884;47.450;19.124;2022-11-15T14:04:53;8.00;99.90
44215;DHT22;29884;47.450;19.124;2022-11-15T14:07:25;8.00;99.90
44215;DHT22;29884;47.450;19.124;2022-11-15T14:09:51;8.10;99.90
44215;DHT22;29884;47.450;19.124;2022-11-15T14:14:52;8.00;99.90
44215;DHT22;29884;47.450;19.124;2022-11-15T14:17:34;8.00;99.90
44215;DHT22;29884;47.450;19.124;2022-11-15T14:20:00;7.90;99.90
44215;DHT22;29884;47.450;19.124;2022-11-15T14:22:28;7.90;99.90
44215;DHT22;29884;47.450;19.124;2022-11-15T14:27:33;7.90;99.90
44215;DHT22;29884;47.450;19.124;2022-11-15T14:29:59;7.80;99.90
44215;DHT22;29884;47.450;19.124;2022-11-15T14:32:28;7.80;99.90
44215;DHT22;29884;47.450;19.124;2022-11-15T14:35:02;7.80;99.90
44215;DHT22;29884;47.450;19.124;2022-11-15T14:37:28;7.80;99.90
44215;DHT22;29884;47.450;19.124;2022-11-15T14:39:56;7.80;99.90
44215;DHT22;29884;47.450;19.124;2022-11-15T14:42:23;7.80;99.90
44215;DHT22;29884;47.450;19.124;2022-11-15T14:44:48;7.80;99.90
44215;DHT22;29884;47.450;19.124;2022-11-15T14:47:14;7.80;99.90
44215;DHT22;29884;47.450;19.124;2022-11-15T14:49:40;7.80;99.90
44215;DHT22;29884;47.450;19.124;2022-11-15T14:52:32;7.80;99.90
44215;DHT22;29884;47.450;19.124;2022-11-15T14:55:03;7.80;99.90
44215;DHT22;29884;47.450;19.124;2022-11-15T14:57:34;7.80;99.90
44215;DHT22;29884;47.450;19.124;2022-11-15T15:00:00;7.80;99.90
44215;DHT22;29884;47.450;19.124;2022-11-15T15:02:27;7.80;99.90
44215;DHT22;29884;47.450;19.124;2022-11-15T15:04:53;7.80;99.90
44215;DHT22;29884;47.450;19.124;2022-11-15T15:07:19;7.80;99.90
44215;DHT22;29884;47.450;19.124;2022-11-15T15:09:45;7.80;99.90
44215;DHT22;29884;47.450;19.124;2022-11-15T15:12:20;7.80;99.90
44215;DHT22;29884;47.450;19.124;2022-11-15T15:14:47;7.80;99.90
44215;DHT22;29884;47.450;19.124;2022-11-15T15:17:13;7.80;99.90
44215;DHT22;29884;47.450;19.124;2022-11-15T15:19:39;7.90;99.90
44215;DHT22;29884;47.450;19.124;2022-11-15T15:22:05;7.90;99.90
44215;DHT22;29884;47.450;19.124;2022-11-15T15:24:31;7.80;99.90
44215;DHT22;29884;47.450;19.124;2022-11-15T15:26:57;7.80;99.90
44215;DHT22;29884;47.450;19.124;2022-11-15T15:29:22;7.80;99.90
44215;DHT22;29884;47.450;19.124;2022-11-15T15:31:48;7.80;99.90
44215;DHT22;29884;47.450;19.124;2022-11-15T15:34:14;7.80;99.90
44215;DHT22;29884;47.450;19.124;2022-11-15T15:36:39;7.80;99.90
44215;DHT22;29884;47.450;19.124;2022-11-15T15:39:09;7.80;99.90
44215;DHT22;29884;47.450;19.124;2022-11-15T15:41:35;7.80;99.90
44215;DHT22;29884;47.450;19.124;2022-11-15T15:44:01;7.80;99.90
44215;DHT22;29884;47.450;19.124;2022-11-15T15:46:26;7.70;99.90
44215;DHT22;29884;47.450;19.124;2022-11-15T15:48:52;7.70;99.90
44215;DHT22;29884;47.450;19.124;2022-11-15T15:51:18;7.70;99.90
44215;DHT22;29884;47.450;19.124;2022-11-15T15:53:44;7.80;99.90
44215;DHT22;29884;47.450;19.124;2022-11-15T15:56:09;7.80;99.90
44215;DHT22;29884;47.450;19.124;2022-11-15T15:58:35;7.80;99.90
44215;DHT22;29884;47.450;19.124;2022-11-15T16:01:01;7.80;99.90
44215;DHT22;29884;47.450;19.124;2022-11-15T16:03:27;7.80;99.90
44215;DHT22;29884;47.450;19.124;2022-11-15T16:05:53;7.80;99.90
44215;DHT22;29884;47.450;19.124;2022-11-15T16:08:23;7.80;99.90
44215;DHT22;29884;47.450;19.124;2022-11-15T16:10:50;7.80;99.90
44215;DHT22;29884;47.450;19.124;2022-11-15T16:13:16;7.80;99.90
44215;DHT22;29884;47.450;19.124;2022-11-15T16:15:43;7.90;99.90
44215;DHT22;29884;47.450;19.124;2022-11-15T16:18:15;7.90;99.90
44215;DHT22;29884;47.450;19.124;2022-11-15T16:20:44;7.90;99.90
44215;DHT22;29884;47.450;19.124;2022-11-15T16:23:12;7.90;99.90
44215;DHT22;29884;47.450;19.124;2022-11-15T16:28:28;7.90;99.90
44215;DHT22;29884;47.450;19.124;2022-11-15T16:31:08;7.90;99.90
44215;DHT22;29884;47.450;19.124;2022-11-15T16:33:34;7.90;99.90
44215;DHT22;29884;47.450;19.124;2022-11-15T16:36:00;7.80;99.90
44215;DHT22;29884;47.450;19.124;2022-11-15T16:38:26;7.80;99.90
44215;DHT22;29884;47.450;19.124;2022-11-15T16:40:52;7.80;99.90
44215;DHT22;29884;47.450;19.124;2022-11-15T16:43:18;7.90;99.90
44215;DHT22;29884;47.450;19.124;2022-11-15T16:45:44;7.80;99.90
44215;DHT22;29884;47.450;19.124;2022-11-15T16:48:22;7.80;99.90
44215;DHT22;29884;47.450;19.124;2022-11-15T16:50:48;7.90;99.90
44215;DHT22;29884;47.450;19.124;2022-11-15T16:53:14;7.90;99.90
44215;DHT22;29884;47.450;19.124;2022-11-15T16:55:39;7.90;99.90
44215;DHT22;29884;47.450;19.124;2022-11-15T16:58:05;7.90;99.90
44215;DHT22;29884;47.450;19.124;2022-11-15T17:00:30;7.90;99.90
44215;DHT22;29884;47.450;19.124;2022-11-15T17:02:56;7.90;99.90
44215;DHT22;29884;47.450;19.124;2022-11-15T17:05:23;7.90;99.90
44215;DHT22;29884;47.450;19.124;2022-11-15T17:07:50;7.90;99.90
44215;DHT22;29884;47.450;19.124;2022-11-15T17:10:20;7.80;99.90
44215;DHT22;29884;47.450;19.124;2022-11-15T17:12:46;7.80;99.90
44215;DHT22;29884;47.450;19.124;2022-11-15T17:15:12;7.80;99.90
44215;DHT22;29884;47.450;19.124;2022-11-15T17:17:39;7.90;99.90
44215;DHT22;29884;47.450;19.124;2022-11-15T17:20:06;7.90;99.90
44215;DHT22;29884;47.450;19.124;2022-11-15T17:22:36;7.90;99.90
44215;DHT22;29884;47.450;19.124;2022-11-15T17:25:03;7.90;99.90
44215;DHT22;29884;47.450;19.124;2022-11-15T17:27:29;7.90;99.90
44215;DHT22;29884;47.450;19.124;2022-11-15T17:29:55;7.90;99.90
44215;DHT22;29884;47.450;19.124;2022-11-15T17:32:21;7.90;99.90
44215;DHT22;29884;47.450;19.124;2022-11-15T17:34:46;7.90;99.90
44215;DHT22;29884;47.450;19.124;2022-11-15T17:37:12;7.90;99.90
44215;DHT22;29884;47.450;19.124;2022-11-15T17:39:38;7.90;99.90
44215;DHT22;29884;47.450;19.124;2022-11-15T17:42:03;7.90;99.90
44215;DHT22;29884;47.450;19.124;2022-11-15T17:44:30;7.90;99.90
44215;DHT22;29884;47.450;19.124;2022-11-15T17:46:56;7.90;99.90
44215;DHT22;29884;47.450;19.124;2022-11-15T17:49:21;7.90;99.90
44215;DHT22;29884;47.450;19.124;2022-11-15T17:51:47;7.90;99.90
44215;DHT22;29884;47.450;19.124;2022-11-15T17:54:13;8.00;99.90
44215;DHT22;29884;47.450;19.124;2022-11-15T17:56:39;8.00;99.90
44215;DHT22;29884;47.450;19.124;2022-11-15T17:59:05;7.90;99.90
44215;DHT22;29884;47.450;19.124;2022-11-15T18:01:35;7.90;99.90
44215;DHT22;29884;47.450;19.124;2022-11-15T18:04:02;8.00;99.90
44215;DHT22;29884;47.450;19.124;2022-11-15T18:06:30;8.00;99.90
44215;DHT22;29884;47.450;19.124;2022-11-15T18:08:56;7.90;99.90